Valley Falls, KS

1:36 AM CDT on April 28, 2015 (GMT -0500)
Lakeridge | | Change Station
CLOSE
Current Station
Personal Weather Station
Location: Ozawkie, KS
Elevation: 1023 ft
Nearby Weather Stations

Elev 1023 ft 39.16 °N, 95.48 °W | Updated 6 seconds ago

Partly Cloudy
Partly Cloudy
46.6 °F
Feels Like 47 °F
N
0.7
Wind Variable Wind from NE
Gusts 1.6 mph

Today
High -- | Low -- °F
--% Chance of Precip.
Yesterday
High -- | Low -- °F
Precip. -- in
6:27 AM 8:12 PM
Waxing Gibbous, 71% visible
Pressure 30.15 in
Visibility 10.0 miles
Clouds Clear
Windchill 47 °F
Dew Point 40 °F
Humidity 78%
Rainfall 0.00 in
Snow Depth Not available.
UV 0 out of 12
Pollen 10.10 out of 12
Air Quality Not available.
Flu Activity Sporadic
METAR KTOP 280553Z AUTO 00000KT 10SM CLR 08/04 A3014 RMK AO2 SLP208 T00780044 10183 20078 401940044 51009

More Conditions Fewer Conditions

Pressure 30.15 in
Visibility 10.0 miles
Clouds Clear
Windchill 47 °F
Dew Point 40 °F
Humidity 78%
Rainfall 0.00 in
Snow Depth Not available.
UV 0 out of 12
Pollen 10.10 out of 12
Air Quality Not available.
Flu Activity Sporadic
METAR KTOP 280553Z AUTO 00000KT 10SM CLR 08/04 A3014 RMK AO2 SLP208 T00780044 10183 20078 401940044 51009

More Conditions Fewer Conditions

10-Day Weather Forecast

Almanac

Astronomy

Apr. 28, 2015 Rise Set
Actual Time
Civil Twilight
Nautical Twilight
Astronomical Twilight
Moon
Length of Visible Light
Length of Day
Tomorrow will be .
, % of the Moon is Illuminated

Today's Extremes

State Highs State Lows

Community

WunderPhotos

Upload Photos

1,817,591 photos uploaded!

WunderBlogs® & News

Nearby

Air Quality

  Air Quality AQ Index Pollutant
Not available.

Snow Depth

Station Depth Elevation

Earthquake Activity

City Distance Mag. Time & Date
Minimum magnitude displayed is 2.5.

Coastal Water Temperatures

Place Temperature

Stations

Nearby Weather Stations

Station Location Temp. Windchill Dew Point Humidity Wind Precip. Elev Updated Type